createdAt,value
2018-09-25T00:00:09.045Z,1032.68
2018-09-25T00:01:09.031Z,1032.64
2018-09-25T00:02:09.025Z,1032.63
2018-09-25T00:03:09.017Z,1032.71
2018-09-25T00:04:09.008Z,1032.73
2018-09-25T00:05:09.004Z,1032.73
2018-09-25T00:06:08.995Z,1032.73
2018-09-25T00:07:08.984Z,1032.71
2018-09-25T00:08:08.975Z,1032.75
2018-09-25T00:09:08.972Z,1032.70
2018-09-25T00:10:08.993Z,1032.74
2018-09-25T00:11:08.956Z,1032.75
2018-09-25T00:12:08.949Z,1032.79
2018-09-25T00:13:08.935Z,1032.77
2018-09-25T00:14:08.926Z,1032.73
2018-09-25T00:15:08.920Z,1032.72
2018-09-25T00:16:08.910Z,1032.74
2018-09-25T00:17:08.908Z,1032.77
2018-09-25T00:18:08.899Z,1032.74
2018-09-25T00:19:08.891Z,1032.72
2018-09-25T00:20:08.884Z,1032.71
2018-09-25T00:21:08.868Z,1032.75
2018-09-25T00:22:08.861Z,1032.72
2018-09-25T00:23:08.858Z,1032.77
2018-09-25T00:24:08.849Z,1032.76
2018-09-25T00:25:08.835Z,1032.73
2018-09-25T00:26:08.827Z,1032.69
2018-09-25T00:27:08.821Z,1032.70
2018-09-25T00:28:08.812Z,1032.69
2018-09-25T00:29:08.808Z,1032.70
2018-09-25T00:30:08.800Z,1032.73
2018-09-25T00:31:08.796Z,1032.73
2018-09-25T00:32:08.784Z,1032.73
2018-09-25T00:33:08.773Z,1032.77
2018-09-25T00:34:08.763Z,1032.72
2018-09-25T00:35:08.755Z,1032.73
2018-09-25T00:36:08.747Z,1032.82
2018-09-25T00:37:08.742Z,1032.80
2018-09-25T00:38:08.733Z,1032.84
2018-09-25T00:39:08.724Z,1032.82
2018-09-25T00:40:08.714Z,1032.83
2018-09-25T00:41:08.707Z,1032.83
2018-09-25T00:42:08.699Z,1032.86
2018-09-25T00:43:08.693Z,1032.90
2018-09-25T00:44:08.685Z,1032.88
2018-09-25T00:45:08.670Z,1032.82
2018-09-25T00:46:08.661Z,1032.87
2018-09-25T00:47:08.756Z,1032.85
2018-09-25T00:48:08.645Z,1032.88
2018-09-25T00:49:08.641Z,1032.91
2018-09-25T00:50:08.636Z,1032.89
2018-09-25T00:51:08.625Z,1032.89
2018-09-25T00:52:08.617Z,1032.85
2018-09-25T00:53:08.603Z,1032.84
2018-09-25T00:54:08.595Z,1032.85
2018-09-25T00:55:08.594Z,1032.85
2018-09-25T00:56:08.585Z,1032.82
2018-09-25T00:57:08.570Z,1032.83
2018-09-25T00:58:08.561Z,1032.85
2018-09-25T00:59:08.559Z,1032.79
2018-09-25T01:00:08.545Z,1032.81
2018-09-25T01:01:08.540Z,1032.86
2018-09-25T01:02:08.531Z,1032.87
2018-09-25T01:03:08.524Z,1032.91
2018-09-25T01:04:08.515Z,1032.89
2018-09-25T01:05:08.501Z,1032.85
2018-09-25T01:06:08.495Z,1032.86
2018-09-25T01:07:08.485Z,1032.89
2018-09-25T01:08:08.482Z,1032.93
2018-09-25T01:09:08.473Z,1032.92
2018-09-25T01:10:08.464Z,1032.92
2018-09-25T01:11:08.451Z,1032.88
2018-09-25T01:12:08.442Z,1032.95
2018-09-25T01:13:08.439Z,1032.92
2018-09-25T01:14:08.430Z,1032.87
2018-09-25T01:15:08.421Z,1032.94
2018-09-25T01:16:08.414Z,1032.96
2018-09-25T01:17:08.399Z,1033.01
2018-09-25T01:18:08.391Z,1032.97
2018-09-25T01:19:08.436Z,1032.97
2018-09-25T01:20:08.374Z,1032.99
2018-09-25T01:21:08.369Z,1033.02
2018-09-25T01:22:08.360Z,1033.01
2018-09-25T01:23:08.354Z,1032.99
2018-09-25T01:24:08.344Z,1033.03
2018-09-25T01:25:08.333Z,1033.10
2018-09-25T01:26:08.321Z,1033.09
2018-09-25T01:27:08.321Z,1033.13
2018-09-25T01:28:08.311Z,1033.09
2018-09-25T01:29:08.295Z,1033.04
2018-09-25T01:30:08.288Z,1033.10
2018-09-25T01:31:08.280Z,1033.06
2018-09-25T01:32:08.271Z,1033.02
2018-09-25T01:33:08.266Z,1033.04
2018-09-25T01:34:08.259Z,1033.07
2018-09-25T01:35:08.250Z,1033.07
2018-09-25T01:36:08.241Z,1033.09
2018-09-25T01:37:08.227Z,1033.06
2018-09-25T01:38:08.218Z,1033.09
2018-09-25T01:39:08.210Z,1033.06
2018-09-25T01:40:08.202Z,1033.12
2018-09-25T01:41:08.198Z,1033.11
2018-09-25T01:42:08.189Z,1033.11
2018-09-25T01:43:08.176Z,1033.08
2018-09-25T01:44:08.167Z,1033.12
2018-09-25T01:45:08.163Z,1033.13
2018-09-25T01:46:08.154Z,1033.08
2018-09-25T01:47:08.144Z,1033.17
2018-09-25T01:48:08.137Z,1033.13
2018-09-25T01:49:08.124Z,1033.14
2018-09-25T01:50:08.116Z,1033.15
2018-09-25T01:51:08.105Z,1033.12
2018-09-25T01:52:08.098Z,1033.14
2018-09-25T01:53:08.095Z,1033.13
2018-09-25T01:54:08.084Z,1033.12
2018-09-25T01:55:08.077Z,1033.06
2018-09-25T01:56:08.069Z,1033.13
2018-09-25T01:57:08.053Z,1033.10
2018-09-25T01:58:08.045Z,1033.18
2018-09-25T01:59:08.041Z,1033.16
2018-09-25T02:00:08.037Z,1033.16
2018-09-25T02:01:08.018Z,1033.17
2018-09-25T02:02:08.011Z,1033.20
2018-09-25T02:03:08.005Z,1033.18
2018-09-25T02:04:07.997Z,1033.26
2018-09-25T02:05:07.986Z,1033.23
2018-09-25T02:06:07.979Z,1033.30
2018-09-25T02:07:07.969Z,1033.25
2018-09-25T02:08:07.961Z,1033.23
2018-09-25T02:09:07.947Z,1033.25
2018-09-25T02:10:07.938Z,1033.19
2018-09-25T02:11:07.933Z,1033.20
2018-09-25T02:12:07.921Z,1033.15
2018-09-25T02:13:07.917Z,1033.16
2018-09-25T02:14:07.910Z,1033.16
2018-09-25T02:15:07.897Z,1033.16
2018-09-25T02:16:07.886Z,1033.15
2018-09-25T02:17:07.881Z,1033.16
2018-09-25T02:18:07.872Z,1033.09
2018-09-25T02:19:07.864Z,1033.13
2018-09-25T02:20:07.855Z,1033.13
2018-09-25T02:21:07.845Z,1033.08
2018-09-25T02:22:07.833Z,1033.12
2018-09-25T02:23:07.824Z,1033.11
2018-09-25T02:24:07.818Z,1033.07
2018-09-25T02:25:07.810Z,1033.08
2018-09-25T02:26:07.801Z,1033.07
2018-09-25T02:27:07.793Z,1033.06
2018-09-25T02:28:07.795Z,1033.08
2018-09-25T02:29:07.769Z,1033.08
2018-09-25T02:30:07.770Z,1033.08
2018-09-25T02:31:07.757Z,1033.11
2018-09-25T02:32:07.749Z,1033.07
2018-09-25T02:33:07.733Z,1033.07
2018-09-25T02:34:07.725Z,1033.05
2018-09-25T02:35:07.715Z,1033.06
2018-09-25T02:36:07.707Z,1032.99
2018-09-25T02:37:07.702Z,1033.04
2018-09-25T02:38:07.693Z,1033.03
2018-09-25T02:39:07.683Z,1033.05
2018-09-25T02:40:07.675Z,1033.03
2018-09-25T02:41:07.661Z,1033.00
2018-09-25T02:42:07.652Z,1033.01
2018-09-25T02:43:07.655Z,1033.04
2018-09-25T02:44:07.635Z,1033.03
2018-09-25T02:45:07.629Z,1033.02
2018-09-25T02:46:07.621Z,1033.02
2018-09-25T02:47:07.608Z,1033.04
2018-09-25T02:48:07.597Z,1032.97
2018-09-25T02:49:07.596Z,1033.01
2018-09-25T02:50:07.584Z,1032.97
2018-09-25T02:51:07.578Z,1032.97
2018-09-25T02:52:07.566Z,1032.96
2018-09-25T02:53:07.562Z,1032.97
2018-09-25T02:54:07.543Z,1032.97
2018-09-25T02:55:07.536Z,1032.93
2018-09-25T02:56:07.526Z,1032.94
2018-09-25T02:57:07.520Z,1032.94
2018-09-25T02:58:07.511Z,1032.93
2018-09-25T02:59:07.503Z,1032.97
2018-09-25T03:00:07.492Z,1032.95
2018-09-25T03:01:07.479Z,1032.90
2018-09-25T03:02:07.473Z,1032.91
2018-09-25T03:03:07.464Z,1032.89
2018-09-25T03:04:07.460Z,1032.88
2018-09-25T03:05:07.443Z,1032.90
2018-09-25T03:06:07.433Z,1032.91
2018-09-25T03:07:07.427Z,1032.91
2018-09-25T03:08:07.422Z,1032.90
2018-09-25T03:09:07.413Z,1032.89
2018-09-25T03:10:07.415Z,1032.89
2018-09-25T03:11:07.393Z,1032.86
2018-09-25T03:12:07.385Z,1032.84
2018-09-25T03:13:07.370Z,1032.90
2018-09-25T03:14:07.360Z,1032.90
2018-09-25T03:15:07.353Z,1032.93
2018-09-25T03:16:07.344Z,1032.92
2018-09-25T03:17:07.338Z,1032.95
2018-09-25T03:18:07.329Z,1033.04
2018-09-25T03:19:07.367Z,1032.96
2018-09-25T03:20:07.307Z,1032.98
2018-09-25T03:21:07.303Z,1032.93
2018-09-25T03:22:07.321Z,1032.92
2018-09-25T03:23:07.287Z,1033.00
2018-09-25T03:24:07.276Z,1032.98
2018-09-25T03:25:07.262Z,1033.03
2018-09-25T03:26:07.253Z,1033.01
2018-09-25T03:27:07.243Z,1032.99
2018-09-25T03:28:07.235Z,1033.00
2018-09-25T03:29:07.230Z,1033.05
2018-09-25T03:30:07.221Z,1033.10
2018-09-25T03:31:07.210Z,1033.05
2018-09-25T03:32:07.203Z,1033.04
2018-09-25T03:33:07.188Z,1033.09
2018-09-25T03:34:07.178Z,1033.03
2018-09-25T03:35:07.175Z,1033.02
2018-09-25T03:36:07.166Z,1033.03
2018-09-25T03:37:07.152Z,1032.96
2018-09-25T03:38:07.144Z,1033.01
2018-09-25T03:39:07.134Z,1033.03
2018-09-25T03:40:07.126Z,1033.02
2018-09-25T03:41:07.121Z,1033.01
2018-09-25T03:42:07.110Z,1033.00
2018-09-25T03:43:07.102Z,1033.04
2018-09-25T03:44:07.093Z,1033.01
2018-09-25T03:45:07.085Z,1033.02
2018-09-25T03:46:07.069Z,1032.95
2018-09-25T03:47:07.061Z,1033.01
2018-09-25T03:48:07.050Z,1032.97
2018-09-25T03:49:07.045Z,1032.99
2018-09-25T03:50:07.039Z,1033.01
2018-09-25T03:51:07.024Z,1033.03
2018-09-25T03:52:07.015Z,1033.05
2018-09-25T03:53:07.010Z,1032.94
2018-09-25T03:54:07.001Z,1032.96
2018-09-25T03:55:06.994Z,1032.97
2018-09-25T03:56:06.983Z,1032.97
2018-09-25T03:57:06.977Z,1033.05
2018-09-25T03:58:06.960Z,1033.00
2018-09-25T03:59:06.955Z,1032.97
2018-09-25T04:00:06.943Z,1032.94
2018-09-25T04:01:06.937Z,1032.93
2018-09-25T04:02:06.927Z,1032.88
2018-09-25T04:03:06.920Z,1032.94
2018-09-25T04:04:06.910Z,1032.97
2018-09-25T04:05:06.895Z,1032.95
2018-09-25T04:06:06.891Z,1032.95
2018-09-25T04:07:06.882Z,1032.98
2018-09-25T04:08:06.873Z,1032.99
2018-09-25T04:09:06.858Z,1032.99
2018-09-25T04:10:06.858Z,1032.99
2018-09-25T04:11:06.840Z,1032.97
2018-09-25T04:12:06.831Z,1032.98
2018-09-25T04:13:06.824Z,1032.96
2018-09-25T04:14:06.816Z,1032.94
2018-09-25T04:15:06.810Z,1032.99
2018-09-25T04:16:06.799Z,1032.93
2018-09-25T04:17:06.784Z,1032.96
2018-09-25T04:18:06.775Z,1032.94
2018-09-25T04:19:06.765Z,1032.95
2018-09-25T04:20:06.757Z,1032.95
2018-09-25T04:21:06.752Z,1032.98
2018-09-25T04:22:06.743Z,1032.99
2018-09-25T04:23:06.728Z,1033.01
2018-09-25T04:24:06.720Z,1032.99
2018-09-25T04:25:06.714Z,1033.02
2018-09-25T04:26:06.708Z,1033.02
2018-09-25T04:27:06.696Z,1032.99
2018-09-25T04:28:06.686Z,1033.02
2018-09-25T04:29:06.671Z,1033.05
2018-09-25T04:30:06.664Z,1033.02
2018-09-25T04:31:06.654Z,1033.02
2018-09-25T04:32:06.645Z,1033.08
2018-09-25T04:33:06.640Z,1033.09
2018-09-25T04:34:06.635Z,1033.09
2018-09-25T04:35:06.621Z,1033.07
2018-09-25T04:36:06.612Z,1033.11
2018-09-25T04:37:06.611Z,1033.13
2018-09-25T04:38:06.588Z,1033.13
2018-09-25T04:39:06.585Z,1033.17
2018-09-25T04:40:06.575Z,1033.18
2018-09-25T04:41:06.561Z,1033.23
2018-09-25T04:42:06.551Z,1033.23
2018-09-25T04:43:06.542Z,1033.19
2018-09-25T04:44:06.534Z,1033.21
2018-09-25T04:45:06.526Z,1033.18
2018-09-25T04:46:06.518Z,1033.16
2018-09-25T04:47:06.551Z,1033.16
2018-09-25T04:48:06.498Z,1033.21
2018-09-25T04:49:06.485Z,1033.20
2018-09-25T04:50:06.476Z,1033.22
2018-09-25T04:51:06.467Z,1033.27
2018-09-25T04:52:06.458Z,1033.24
2018-09-25T04:53:06.452Z,1033.31
2018-09-25T04:54:06.442Z,1033.26
2018-09-25T04:55:06.431Z,1033.24
2018-09-25T04:56:06.419Z,1033.30
2018-09-25T04:57:06.480Z,1033.32
2018-09-25T04:58:06.407Z,1033.36
2018-09-25T04:59:06.395Z,1033.34
2018-09-25T05:00:06.386Z,1033.33
2018-09-25T05:01:06.371Z,1033.34
2018-09-25T05:02:06.362Z,1033.34
2018-09-25T05:03:06.352Z,1033.39
2018-09-25T05:04:06.345Z,1033.40
2018-09-25T05:05:06.338Z,1033.40
2018-09-25T05:06:06.329Z,1033.37
2018-09-25T05:07:06.320Z,1033.34
2018-09-25T05:08:06.311Z,1033.39
2018-09-25T05:09:06.294Z,1033.44
2018-09-25T05:10:06.285Z,1033.46
2018-09-25T05:11:06.280Z,1033.48
2018-09-25T05:12:06.383Z,1033.46
2018-09-25T05:13:06.257Z,1033.46
2018-09-25T05:14:06.250Z,1033.41
2018-09-25T05:15:06.239Z,1033.42
2018-09-25T05:16:06.230Z,1033.45
2018-09-25T05:17:06.224Z,1033.46
2018-09-25T05:18:06.221Z,1033.39
2018-09-25T05:19:06.225Z,1033.44
2018-09-25T05:20:06.197Z,1033.46
2018-09-25T05:21:06.182Z,1033.36
2018-09-25T05:22:06.173Z,1033.44
2018-09-25T05:23:06.163Z,1033.49
2018-09-25T05:24:06.152Z,1033.45
2018-09-25T05:25:06.148Z,1033.53
2018-09-25T05:26:06.338Z,1033.56
2018-09-25T05:27:06.124Z,1033.57
2018-09-25T05:28:06.115Z,1033.58
2018-09-25T05:29:06.109Z,1033.57
2018-09-25T05:30:06.100Z,1033.60
2018-09-25T05:31:06.091Z,1033.63
2018-09-25T05:32:06.082Z,1033.64
2018-09-25T05:33:06.067Z,1033.68
2018-09-25T05:34:06.057Z,1033.65
2018-09-25T05:35:06.049Z,1033.65
2018-09-25T05:36:06.039Z,1033.61
2018-09-25T05:37:06.033Z,1033.59
2018-09-25T05:38:06.023Z,1033.67
2018-09-25T05:39:06.016Z,1033.65
2018-09-25T05:40:06.006Z,1033.73
2018-09-25T05:41:05.994Z,1033.76
2018-09-25T05:42:05.980Z,1033.78
2018-09-25T05:43:05.976Z,1033.76
2018-09-25T05:44:05.966Z,1033.71
2018-09-25T05:45:05.952Z,1033.68
2018-09-25T05:46:05.942Z,1033.66
2018-09-25T05:47:05.934Z,1033.68
2018-09-25T05:48:06.004Z,1033.66
2018-09-25T05:49:05.964Z,1033.65
2018-09-25T05:50:05.911Z,1033.60
2018-09-25T05:51:05.901Z,1033.65
2018-09-25T05:52:05.892Z,1033.63
2018-09-25T05:53:05.877Z,1033.71
2018-09-25T05:54:05.869Z,1033.84
2018-09-25T05:55:05.859Z,1033.97
2018-09-25T05:56:05.850Z,1034.08
2018-09-25T05:57:05.845Z,1034.11
2018-09-25T05:58:05.836Z,1034.12
2018-09-25T05:59:05.823Z,1034.15
2018-09-25T06:00:05.814Z,1034.19
2018-09-25T06:01:05.877Z,1034.19
2018-09-25T06:02:05.801Z,1034.23
2018-09-25T06:03:05.792Z,1034.18
2018-09-25T06:04:05.786Z,1034.11
2018-09-25T06:05:05.771Z,1034.11
2018-09-25T06:06:05.763Z,1034.09
2018-09-25T06:07:05.761Z,1034.06
2018-09-25T06:08:05.752Z,1034.08
2018-09-25T06:09:05.780Z,1034.14
2018-09-25T06:10:05.731Z,1034.07
2018-09-25T06:11:05.725Z,1034.18
2018-09-25T06:12:05.717Z,1034.23
2018-09-25T06:13:05.713Z,1034.38
2018-09-25T06:14:05.710Z,1034.44
2018-09-25T06:15:05.695Z,1034.48
2018-09-25T06:16:05.688Z,1034.54
2018-09-25T06:17:05.684Z,1034.56
2018-09-25T06:18:05.678Z,1034.58
2018-09-25T06:19:05.674Z,1034.59
2018-09-25T06:20:05.667Z,1034.63
2018-09-25T06:21:05.656Z,1034.66
2018-09-25T06:22:05.647Z,1034.65
2018-09-25T06:23:05.751Z,1034.65
2018-09-25T06:24:05.637Z,1034.70
2018-09-25T06:25:05.633Z,1034.73
2018-09-25T06:26:05.630Z,1034.81
2018-09-25T06:27:05.627Z,1034.85
2018-09-25T06:28:05.624Z,1034.86
2018-09-25T06:29:05.611Z,1034.90
2018-09-25T06:30:05.607Z,1034.96
2018-09-25T06:31:05.607Z,1034.99
2018-09-25T06:32:05.604Z,1035.00
2018-09-25T06:33:05.595Z,1034.97
2018-09-25T06:34:05.593Z,1035.00
2018-09-25T06:35:05.603Z,1035.01
2018-09-25T06:36:05.586Z,1035.09
2018-09-25T06:37:05.624Z,1035.10
2018-09-25T06:38:05.586Z,1035.13
2018-09-25T06:39:05.584Z,1035.10
2018-09-25T06:40:05.582Z,1035.18
2018-09-25T06:41:05.575Z,1035.12
2018-09-25T06:42:05.575Z,1035.22
2018-09-25T06:43:05.574Z,1035.19
2018-09-25T06:44:05.575Z,1035.25
2018-09-25T06:45:05.578Z,1035.27
2018-09-25T06:46:05.575Z,1035.25
2018-09-25T06:47:05.631Z,1035.31
2018-09-25T06:48:05.570Z,1035.34
2018-09-25T06:49:05.574Z,1035.29
2018-09-25T06:50:05.574Z,1035.35
2018-09-25T06:51:05.574Z,1035.39
2018-09-25T06:52:05.584Z,1035.42
2018-09-25T06:53:05.571Z,1035.44
2018-09-25T06:54:05.571Z,1035.40
2018-09-25T06:55:05.764Z,1035.48
2018-09-25T06:56:05.573Z,1035.46
2018-09-25T06:57:05.578Z,1035.53
2018-09-25T06:58:05.580Z,1035.51
2018-09-25T06:59:05.583Z,1035.57
2018-09-25T07:00:05.583Z,1035.57
2018-09-25T07:01:05.580Z,1035.64
2018-09-25T07:02:05.580Z,1035.65
2018-09-25T07:03:05.588Z,1035.62
2018-09-25T07:04:05.590Z,1035.67
2018-09-25T07:05:05.585Z,1035.72
2018-09-25T07:06:05.588Z,1035.72
2018-09-25T07:07:05.590Z,1035.79
2018-09-25T07:08:05.591Z,1035.78
2018-09-25T07:09:05.601Z,1035.82
2018-09-25T07:10:05.804Z,1035.82
2018-09-25T07:11:05.604Z,1035.85
2018-09-25T07:12:05.608Z,1035.90
2018-09-25T07:13:05.604Z,1035.91
2018-09-25T07:14:05.607Z,1035.98
2018-09-25T07:15:05.610Z,1036.03
2018-09-25T07:16:05.614Z,1035.13
2018-09-25T07:17:05.619Z,1035.12
2018-09-25T07:18:05.702Z,1035.15
2018-09-25T07:19:05.623Z,1035.13
2018-09-25T07:20:05.626Z,1035.17
2018-09-25T07:21:05.634Z,1035.19
2018-09-25T07:22:05.638Z,1035.21
2018-09-25T07:23:05.643Z,1035.24
2018-09-25T07:24:05.648Z,1035.28
2018-09-25T07:25:05.728Z,1035.27
2018-09-25T07:26:05.650Z,1035.24
2018-09-25T07:27:05.656Z,1035.24
2018-09-25T07:28:05.659Z,1035.25
2018-09-25T07:29:05.667Z,1035.28
2018-09-25T07:30:05.673Z,1035.26
2018-09-25T07:31:05.731Z,1035.24
2018-09-25T07:32:05.681Z,1035.20
2018-09-25T07:33:05.679Z,1035.21
2018-09-25T07:34:05.683Z,1035.23
2018-09-25T07:35:05.692Z,1035.27
2018-09-25T07:36:05.701Z,1035.29
2018-09-25T07:37:05.698Z,1035.36
2018-09-25T07:38:05.703Z,1035.34
2018-09-25T07:39:05.707Z,1035.32
2018-09-25T07:40:05.713Z,1035.37
2018-09-25T07:41:05.723Z,1035.42
2018-09-25T07:42:05.728Z,1035.42
2018-09-25T07:43:05.733Z,1035.46
2018-09-25T07:44:05.739Z,1035.46
2018-09-25T07:45:05.738Z,1035.51
2018-09-25T07:46:05.744Z,1035.49
2018-09-25T07:47:05.749Z,1035.50
2018-09-25T07:48:05.819Z,1035.53
2018-09-25T07:49:05.765Z,1035.56
2018-09-25T07:50:05.769Z,1035.59
2018-09-25T07:51:05.773Z,1035.58
2018-09-25T07:52:05.779Z,1035.63
2018-09-25T07:53:05.788Z,1035.60
2018-09-25T07:54:05.793Z,1035.62
2018-09-25T07:55:05.801Z,1035.65
2018-09-25T07:56:05.807Z,1035.67
2018-09-25T07:57:05.808Z,1035.63
2018-09-25T07:58:05.815Z,1035.68
2018-09-25T07:59:05.820Z,1035.66
2018-09-25T08:00:05.828Z,1035.71
2018-09-25T08:01:05.838Z,1035.72
2018-09-25T08:02:05.846Z,1035.70
2018-09-25T08:03:05.869Z,1035.71
2018-09-25T08:04:05.857Z,1035.72
2018-09-25T08:05:05.858Z,1035.76
2018-09-25T08:06:05.865Z,1035.74
2018-09-25T08:07:05.874Z,1035.74
2018-09-25T08:08:05.883Z,1035.74
2018-09-25T08:09:05.905Z,1035.75
2018-09-25T08:10:05.889Z,1035.77
2018-09-25T08:11:05.899Z,1035.77
2018-09-25T08:12:05.904Z,1035.81
2018-09-25T08:13:05.914Z,1035.77
2018-09-25T08:14:05.921Z,1035.80
2018-09-25T08:15:05.926Z,1035.87
2018-09-25T08:16:05.933Z,1035.90
2018-09-25T08:17:05.937Z,1035.89
2018-09-25T08:18:05.941Z,1035.93
2018-09-25T08:19:05.949Z,1035.97
2018-09-25T08:20:05.956Z,1036.01
2018-09-25T08:21:05.967Z,1036.03
2018-09-25T08:22:05.977Z,1036.00
2018-09-25T08:23:05.975Z,1036.05
2018-09-25T08:24:05.984Z,1036.05
2018-09-25T08:25:05.994Z,1036.04
2018-09-25T08:26:06.002Z,1036.10
2018-09-25T08:27:06.009Z,1036.07
2018-09-25T08:28:06.016Z,1036.07
2018-09-25T08:29:06.019Z,1036.12
2018-09-25T08:30:06.026Z,1036.13
2018-09-25T08:31:06.039Z,1036.18
2018-09-25T08:32:06.040Z,1036.20
2018-09-25T08:33:06.052Z,1036.18
2018-09-25T08:34:06.059Z,1036.20
2018-09-25T08:35:06.109Z,1036.19
2018-09-25T08:36:06.077Z,1036.21
2018-09-25T08:37:06.081Z,1036.22
2018-09-25T08:38:06.090Z,1036.21
2018-09-25T08:39:06.140Z,1036.23
2018-09-25T08:40:06.109Z,1036.23
2018-09-25T08:41:06.112Z,1036.28
2018-09-25T08:42:06.121Z,1036.27
2018-09-25T08:43:06.130Z,1036.25
2018-09-25T08:44:06.140Z,1036.26
2018-09-25T08:45:06.150Z,1036.30
2018-09-25T08:46:06.159Z,1036.26
2018-09-25T08:47:06.218Z,1036.26
2018-09-25T08:48:06.181Z,1036.31
2018-09-25T08:49:06.182Z,1036.33
2018-09-25T08:50:06.191Z,1036.29
2018-09-25T08:51:06.201Z,1036.32
2018-09-25T08:52:06.211Z,1036.37
2018-09-25T08:53:06.225Z,1036.36
2018-09-25T08:54:06.235Z,1036.41
2018-09-25T08:55:06.239Z,1036.44
2018-09-25T08:56:06.250Z,1036.47
2018-09-25T08:57:06.267Z,1036.40
2018-09-25T08:58:06.281Z,1036.45
2018-09-25T08:59:06.286Z,1036.49
2018-09-25T09:00:06.296Z,1036.43
2018-09-25T09:01:06.480Z,1036.46
2018-09-25T09:02:06.313Z,1036.51
2018-09-25T09:03:06.325Z,1036.46
2018-09-25T09:04:06.336Z,1036.45
2018-09-25T09:05:06.351Z,1036.47
2018-09-25T09:06:06.363Z,1036.47
2018-09-25T09:07:06.375Z,1036.51
2018-09-25T09:08:06.420Z,1036.49
2018-09-25T09:09:06.396Z,1036.51
2018-09-25T09:10:06.408Z,1036.52
2018-09-25T09:11:06.422Z,1036.50
2018-09-25T09:12:06.435Z,1036.48
2018-09-25T09:13:06.488Z,1036.49
2018-09-25T09:14:06.453Z,1036.51
2018-09-25T09:15:06.465Z,1036.54
2018-09-25T09:16:06.479Z,1036.53
2018-09-25T09:17:06.494Z,1036.54
2018-09-25T09:18:06.508Z,1036.59
2018-09-25T09:19:06.520Z,1036.62
2018-09-25T09:20:06.578Z,1036.68
2018-09-25T09:21:06.539Z,1036.75
2018-09-25T09:22:06.551Z,1036.70
2018-09-25T09:23:06.565Z,1036.66
2018-09-25T09:24:06.579Z,1036.70
2018-09-25T09:25:06.645Z,1036.71
2018-09-25T09:26:06.607Z,1036.74
2018-09-25T09:27:06.621Z,1036.73
2018-09-25T09:28:06.629Z,1036.75
2018-09-25T09:29:06.643Z,1036.75
2018-09-25T09:30:06.657Z,1036.75
2018-09-25T09:31:06.671Z,1036.78
2018-09-25T09:32:06.685Z,1036.84
2018-09-25T09:33:06.690Z,1036.84
2018-09-25T09:34:06.704Z,1036.85
2018-09-25T09:35:06.718Z,1036.86
2018-09-25T09:36:06.730Z,1036.85
2018-09-25T09:37:06.748Z,1036.82
2018-09-25T09:38:06.761Z,1036.78
2018-09-25T09:39:06.773Z,1036.66
2018-09-25T09:40:06.787Z,1036.64
2018-09-25T09:41:06.874Z,1036.64
2018-09-25T09:42:06.968Z,1036.61
2018-09-25T09:43:06.825Z,1036.60
2018-09-25T09:44:06.839Z,1036.56
2018-09-25T09:45:06.848Z,1036.53
2018-09-25T09:46:06.861Z,1036.50
2018-09-25T09:47:06.876Z,1036.47
2018-09-25T09:48:06.887Z,1036.48
2018-09-25T09:49:06.904Z,1036.39
2018-09-25T09:50:06.917Z,1036.46
2018-09-25T09:51:06.934Z,1036.37
2018-09-25T09:52:06.944Z,1036.35
2018-09-25T09:53:06.951Z,1036.33
2018-09-25T09:54:06.965Z,1036.41
2018-09-25T09:55:07.002Z,1036.36
2018-09-25T09:56:06.991Z,1036.33
2018-09-25T09:57:07.009Z,1036.33
2018-09-25T09:58:07.026Z,1036.29
2018-09-25T09:59:07.031Z,1036.32
2018-09-25T10:00:07.045Z,1036.29
2018-09-25T10:01:07.060Z,1036.35
2018-09-25T10:02:07.074Z,1036.34
2018-09-25T10:03:07.089Z,1036.29
2018-09-25T10:04:07.101Z,1036.30
2018-09-25T10:05:07.108Z,1036.30
2018-09-25T10:06:07.121Z,1036.28
2018-09-25T10:07:07.167Z,1036.31
2018-09-25T10:08:07.147Z,1036.37
2018-09-25T10:09:07.164Z,1036.33
2018-09-25T10:10:07.176Z,1036.38
2018-09-25T10:11:07.188Z,1036.36
2018-09-25T10:12:07.204Z,1036.30
2018-09-25T10:13:07.208Z,1036.31
2018-09-25T10:14:07.221Z,1036.30
2018-09-25T10:15:07.239Z,1036.28
2018-09-25T10:16:07.251Z,1036.28
2018-09-25T10:17:07.258Z,1036.30
2018-09-25T10:18:07.271Z,1036.28
2018-09-25T10:19:07.284Z,1036.25
2018-09-25T10:20:07.299Z,1036.24
2018-09-25T10:21:07.314Z,1036.25
2018-09-25T10:22:07.328Z,1036.25
2018-09-25T10:23:07.340Z,1036.24
2018-09-25T10:24:07.353Z,1036.25
2018-09-25T10:25:07.360Z,1036.30
2018-09-25T10:26:07.374Z,1036.30
2018-09-25T10:27:07.399Z,1036.27
2018-09-25T10:28:07.399Z,1036.20
2018-09-25T10:29:07.416Z,1036.22
2018-09-25T10:30:07.429Z,1036.25
2018-09-25T10:31:07.437Z,1036.24
2018-09-25T10:32:07.452Z,1036.22
2018-09-25T10:33:07.468Z,1036.02
2018-09-25T10:34:07.522Z,1035.95
2018-09-25T10:35:07.496Z,1035.95
2018-09-25T10:36:07.507Z,1035.94
2018-09-25T10:37:07.516Z,1035.94
2018-09-25T10:38:07.528Z,1035.91
2018-09-25T10:39:07.540Z,1035.86
2018-09-25T10:40:07.553Z,1035.90
2018-09-25T10:41:07.630Z,1035.95
2018-09-25T10:42:07.577Z,1035.91
2018-09-25T10:43:07.587Z,1036.08
2018-09-25T10:44:07.597Z,1036.15
2018-09-25T10:45:07.602Z,1036.10
2018-09-25T10:46:07.611Z,1036.11
2018-09-25T10:47:07.625Z,1036.15
2018-09-25T10:48:07.634Z,1036.13
2018-09-25T10:49:07.637Z,1036.14
2018-09-25T10:50:07.651Z,1036.18
2018-09-25T10:51:07.657Z,1036.15
2018-09-25T10:52:07.665Z,1036.16
2018-09-25T10:53:07.681Z,1036.19
2018-09-25T10:54:07.691Z,1036.19
2018-09-25T10:55:07.698Z,1036.18
2018-09-25T10:56:07.828Z,1036.15
2018-09-25T10:57:07.712Z,1036.14
2018-09-25T10:58:07.722Z,1036.15
2018-09-25T10:59:07.733Z,1036.17
2018-09-25T11:00:07.742Z,1036.16
2018-09-25T11:01:07.759Z,1036.14
2018-09-25T11:02:07.766Z,1036.09
2018-09-25T11:03:07.858Z,1036.07
2018-09-25T11:04:07.782Z,1036.08
2018-09-25T11:05:07.795Z,1036.02
2018-09-25T11:06:07.806Z,1036.03
2018-09-25T11:07:07.816Z,1036.00
2018-09-25T11:08:07.826Z,1035.98
2018-09-25T11:09:07.831Z,1036.01
2018-09-25T11:10:07.901Z,1036.03
2018-09-25T11:11:07.854Z,1036.05
2018-09-25T11:12:07.861Z,1036.07
2018-09-25T11:13:07.875Z,1036.00
2018-09-25T11:14:07.885Z,1036.05
2018-09-25T11:15:07.895Z,1036.04
2018-09-25T11:16:07.909Z,1035.99
2018-09-25T11:17:07.910Z,1035.91
2018-09-25T11:18:07.924Z,1035.87
2018-09-25T11:19:07.935Z,1035.82
2018-09-25T11:20:07.945Z,1035.75
2018-09-25T11:21:07.951Z,1035.72
2018-09-25T11:22:07.960Z,1035.71
2018-09-25T11:23:07.972Z,1035.74
2018-09-25T11:24:07.980Z,1035.71
2018-09-25T11:25:07.994Z,1035.66
2018-09-25T11:26:08.003Z,1035.65
2018-09-25T11:27:08.012Z,1035.56
2018-09-25T11:28:08.020Z,1035.53
2018-09-25T11:29:08.023Z,1035.51
2018-09-25T11:30:08.030Z,1035.48
2018-09-25T11:31:08.037Z,1035.50
2018-09-25T11:32:08.046Z,1035.51
2018-09-25T11:33:08.057Z,1035.57
2018-09-25T11:34:08.062Z,1035.53
2018-09-25T11:35:08.067Z,1035.52
2018-09-25T11:36:08.076Z,1035.51
2018-09-25T11:37:08.082Z,1035.49
2018-09-25T11:38:08.087Z,1035.48
2018-09-25T11:39:08.093Z,1035.48
2018-09-25T11:40:08.099Z,1035.46
2018-09-25T11:41:08.124Z,1035.42
2018-09-25T11:42:08.104Z,1035.40
2018-09-25T11:43:08.110Z,1035.37
2018-09-25T11:44:08.114Z,1035.36
2018-09-25T11:45:08.123Z,1035.35
2018-09-25T11:46:08.130Z,1035.33
2018-09-25T11:47:08.140Z,1035.29
2018-09-25T11:48:08.137Z,1035.22
2018-09-25T11:49:08.136Z,1035.26
2018-09-25T11:50:08.138Z,1035.21
2018-09-25T11:51:08.148Z,1035.21
2018-09-25T11:52:08.153Z,1035.12
2018-09-25T11:53:08.168Z,1035.17
2018-09-25T11:54:08.153Z,1035.23
2018-09-25T11:55:08.157Z,1035.22
2018-09-25T11:56:08.163Z,1035.21
2018-09-25T11:57:08.167Z,1035.26
2018-09-25T11:58:08.172Z,1035.24
2018-09-25T11:59:08.175Z,1035.32
2018-09-25T12:00:08.179Z,1035.38
2018-09-25T12:01:08.175Z,1035.42
2018-09-25T12:02:08.239Z,1035.38
2018-09-25T12:03:08.181Z,1035.30
2018-09-25T12:04:08.184Z,1035.23
2018-09-25T12:05:08.192Z,1035.20